Time;durP1;ratioP1;P1;durP2;ratioP2;P2;SDS_P1;SDS_P2;PMS_P1;PMS_P2;Temp;Humidity;BMP_temperature;BMP_pressure;BME280_temperature;BME280_humidity;BME280_pressure;Samples;Min_cycle;Max_cycle;Signal;HPM_P1;HPM_P2
2023/08/15 00:00:47;;;;;;;14.85;10.63;;;;;;;;;;5029705;28;20060;-60
2023/08/15 00:03:13;;;;;;;14.93;10.82;;;;;;;;;;5024748;28;20038;-60
2023/08/15 00:05:40;;;;;;;13.57;10.70;;;;;;;;;;5029644;28;20029;-60
2023/08/15 00:08:06;;;;;;;23.77;11.35;;;;;;;;;;5036594;28;20057;-60
2023/08/15 00:10:32;;;;;;;17.05;11.23;;;;;;;;;;5039261;28;20037;-61
2023/08/15 00:12:58;;;;;;;14.18;10.27;;;;;;;;;;5042445;28;20393;-61
2023/08/15 00:15:24;;;;;;;15.80;11.25;;;;;;;;;;5036989;28;20064;-61
2023/08/15 00:17:50;;;;;;;18.70;11.10;;;;;;;;;;5042140;28;20374;-61
2023/08/15 00:20:16;;;;;;;16.83;11.02;;;;;;;;;;5039192;28;20099;-60
2023/08/15 00:22:42;;;;;;;14.70;9.93;;;;;;;;;;5033862;28;20048;-60
2023/08/15 00:25:09;;;;;;;13.90;10.35;;;;;;;;;;5030579;28;20041;-60
2023/08/15 00:27:35;;;;;;;17.73;10.75;;;;;;;;;;5032063;28;20048;-60
2023/08/15 00:30:05;;;;;;;14.05;9.80;;;;;;;;;;5033478;28;20041;-60
2023/08/15 00:32:35;;;;;;;18.98;10.60;;;;;;;;;;5033631;28;20049;-60
2023/08/15 00:35:05;;;;;;;15.20;10.55;;;;;;;;;;5034992;28;20404;-60
2023/08/15 00:37:32;;;;;;;28.08;11.18;;;;;;;;;;5029344;28;20038;-60
2023/08/15 00:39:58;;;;;;;15.00;9.80;;;;;;;;;;5029163;28;20385;-60
2023/08/15 00:42:25;;;;;;;17.15;10.77;;;;;;;;;;5038334;28;20049;-60
2023/08/15 00:44:51;;;;;;;15.05;10.30;;;;;;;;;;5034030;28;20107;-60
2023/08/15 00:47:18;;;;;;;17.25;10.35;;;;;;;;;;5033552;28;20038;-60
2023/08/15 00:49:46;;;;;;;13.70;10.75;;;;;;;;;;5026966;28;20485;-60
2023/08/15 00:52:15;;;;;;;15.37;9.97;;;;;;;;;;5032057;28;20052;-61
2023/08/15 00:54:48;;;;;;;19.08;10.25;;;;;;;;;;5029692;28;20409;-60
2023/08/15 00:57:15;;;;;;;15.38;11.07;;;;;;;;;;5026915;28;20034;-60
2023/08/15 00:59:43;;;;;;;19.70;10.45;;;;;;;;;;5030119;28;20064;-61
2023/08/15 01:02:10;;;;;;;18.17;9.68;;;;;;;;;;5036004;28;20033;-60
2023/08/15 01:04:38;;;;;;;13.30;10.20;;;;;;;;;;5033982;28;20037;-60
2023/08/15 01:07:04;;;;;;;14.68;10.38;;;;;;;;;;5032817;28;20033;-60
2023/08/15 01:09:30;;;;;;;17.25;9.55;;;;;;;;;;5039472;28;20037;-60
2023/08/15 01:12:02;;;;;;;19.60;11.50;;;;;;;;;;5037097;28;20045;-61
2023/08/15 01:14:55;;;;;;;18.63;10.50;;;;;;;;;;5026391;28;20051;-61
2023/08/15 01:17:30;;;;;;;14.63;10.65;;;;;;;;;;5013532;28;20049;-61
2023/08/15 01:20:01;;;;;;;17.25;10.57;;;;;;;;;;5030708;28;20045;-61
2023/08/15 01:22:31;;;;;;;16.00;10.65;;;;;;;;;;5027451;28;20375;-61
2023/08/15 01:24:58;;;;;;;16.27;10.33;;;;;;;;;;5029789;28;20049;-61
2023/08/15 01:27:24;;;;;;;15.00;10.55;;;;;;;;;;5034225;28;20391;-61
2023/08/15 01:29:50;;;;;;;16.30;10.27;;;;;;;;;;5029381;28;20041;-60
2023/08/15 01:32:42;;;;;;;18.70;11.15;;;;;;;;;;5032381;28;20412;-60
2023/08/15 01:35:11;;;;;;;17.30;10.43;;;;;;;;;;5029483;28;20041;-61
2023/08/15 01:37:40;;;;;;;;;;;;;;;;;;5036491;28;20064;-61
2023/08/15 01:40:10;;;;;;;14.23;10.27;;;;;;;;;;5029256;28;20316;-61
2023/08/15 01:42:40;;;;;;;13.63;9.70;;;;;;;;;;5028432;28;20076;-60
2023/08/15 01:45:08;;;;;;;22.83;10.13;;;;;;;;;;5035605;28;20049;-60
2023/08/15 01:47:35;;;;;;;20.00;10.43;;;;;;;;;;5026835;28;20394;-60
2023/08/15 01:50:01;;;;;;;19.48;11.20;;;;;;;;;;5031802;28;20033;-59
2023/08/15 01:52:28;;;;;;;15.73;10.95;;;;;;;;;;5033847;28;20038;-58
2023/08/15 01:54:54;;;;;;;17.27;10.80;;;;;;;;;;5032789;28;20033;-59
2023/08/15 01:57:21;;;;;;;14.75;10.27;;;;;;;;;;5028585;28;20041;-59
2023/08/15 01:59:47;;;;;;;12.60;9.82;;;;;;;;;;5031712;28;20072;-59
2023/08/15 02:02:14;;;;;;;20.58;12.38;;;;;;;;;;5030474;28;20037;-60
2023/08/15 02:04:40;;;;;;;32.97;15.80;;;;;;;;;;5036372;28;20052;-60
2023/08/15 02:07:06;;;;;;;19.27;12.15;;;;;;;;;;5011808;28;20497;-60
2023/08/15 02:09:32;;;;;;;16.33;11.15;;;;;;;;;;5028434;28;20053;-61
2023/08/15 02:11:58;;;;;;;17.65;10.38;;;;;;;;;;5032581;28;20028;-60
2023/08/15 02:14:24;;;;;;;14.77;10.50;;;;;;;;;;5033819;28;20048;-61
2023/08/15 02:16:50;;;;;;;15.68;9.95;;;;;;;;;;5028889;28;20456;-60
2023/08/15 02:19:16;;;;;;;20.67;10.52;;;;;;;;;;5012723;28;20040;-60
2023/08/15 02:21:42;;;;;;;16.75;10.82;;;;;;;;;;5012039;28;20045;-60
2023/08/15 02:24:09;;;;;;;14.90;10.02;;;;;;;;;;5031662;28;20047;-60
2023/08/15 02:26:35;;;;;;;15.85;11.00;;;;;;;;;;5024647;28;20052;-60
2023/08/15 02:29:03;;;;;;;18.23;10.75;;;;;;;;;;5029816;28;20045;-60
2023/08/15 02:31:30;;;;;;;31.90;19.20;;;;;;;;;;5025643;28;20038;-60
2023/08/15 02:33:56;;;;;;;24.13;13.80;;;;;;;;;;5032747;28;20052;-60
2023/08/15 02:36:22;;;;;;;23.67;13.30;;;;;;;;;;5032153;28;20042;-60
2023/08/15 02:38:48;;;;;;;27.75;14.45;;;;;;;;;;5029730;28;20037;-60
2023/08/15 02:41:15;;;;;;;18.13;11.38;;;;;;;;;;5034224;28;20045;-60
2023/08/15 02:43:41;;;;;;;17.35;11.48;;;;;;;;;;5032912;28;20045;-61
2023/08/15 02:46:07;;;;;;;20.70;11.48;;;;;;;;;;5029559;28;20484;-61
2023/08/15 02:48:33;;;;;;;16.33;10.43;;;;;;;;;;5033441;28;20033;-60
2023/08/15 02:50:59;;;;;;;17.77;10.40;;;;;;;;;;5027734;28;20056;-61
2023/08/15 02:53:25;;;;;;;15.63;10.00;;;;;;;;;;5035112;28;20038;-60
2023/08/15 02:55:52;;;;;;;14.88;10.50;;;;;;;;;;5035150;28;20413;-61
2023/08/15 02:58:18;;;;;;;24.33;11.20;;;;;;;;;;5034294;28;20151;-61
2023/08/15 03:00:44;;;;;;;14.95;10.93;;;;;;;;;;5033062;28;20128;-61
2023/08/15 03:03:10;;;;;;;14.98;10.15;;;;;;;;;;5028984;28;20050;-60
2023/08/15 03:05:37;;;;;;;16.30;10.75;;;;;;;;;;5037005;28;20040;-60
2023/08/15 03:08:04;;;;;;;14.40;10.07;;;;;;;;;;5037310;28;20421;-60
2023/08/15 03:10:32;;;;;;;14.88;10.35;;;;;;;;;;5030096;28;20049;-61
2023/08/15 03:13:00;;;;;;;19.52;10.27;;;;;;;;;;5034981;28;20041;-61
2023/08/15 03:15:26;;;;;;;14.77;10.82;;;;;;;;;;5036014;28;20033;-61
2023/08/15 03:17:52;;;;;;;18.88;10.90;;;;;;;;;;5014064;28;20049;-60
2023/08/15 03:20:18;;;;;;;15.70;10.07;;;;;;;;;;5032100;28;20037;-59
2023/08/15 03:22:45;;;;;;;13.23;9.85;;;;;;;;;;5030486;28;20060;-60
2023/08/15 03:25:11;;;;;;;18.88;10.15;;;;;;;;;;5030990;28;20045;-60
2023/08/15 03:27:37;;;;;;;17.13;10.50;;;;;;;;;;5031779;28;20048;-61
2023/08/15 03:30:04;;;;;;;18.02;10.75;;;;;;;;;;5032871;28;20052;-60
2023/08/15 03:32:30;;;;;;;18.02;10.65;;;;;;;;;;5030551;28;20049;-61
2023/08/15 03:34:56;;;;;;;21.13;10.90;;;;;;;;;;5029884;28;20033;-61
2023/08/15 03:37:23;;;;;;;13.20;10.10;;;;;;;;;;5031957;28;20052;-60
2023/08/15 03:39:50;;;;;;;16.15;10.80;;;;;;;;;;5016471;28;20045;-60
2023/08/15 03:42:16;;;;;;;15.85;10.75;;;;;;;;;;5029349;28;20044;-60
2023/08/15 03:44:42;;;;;;;21.08;10.38;;;;;;;;;;5029337;28;20045;-60
2023/08/15 03:47:09;;;;;;;18.30;10.55;;;;;;;;;;5024939;28;20056;-61
2023/08/15 03:49:36;;;;;;;13.85;10.25;;;;;;;;;;5025571;28;20033;-59
2023/08/15 03:52:02;;;;;;;19.20;10.90;;;;;;;;;;5028682;28;20382;-60
2023/08/15 03:54:29;;;;;;;16.50;10.90;;;;;;;;;;5013462;28;20049;-60
2023/08/15 03:56:55;;;;;;;17.23;10.65;;;;;;;;;;5027281;28;20034;-60
2023/08/15 03:59:21;;;;;;;16.25;10.70;;;;;;;;;;5029424;28;20424;-60
2023/08/15 04:01:47;;;;;;;16.20;10.40;;;;;;;;;;5035319;28;20045;-59
2023/08/15 04:04:13;;;;;;;17.60;10.93;;;;;;;;;;5035896;28;20417;-60
2023/08/15 04:06:39;;;;;;;27.95;15.50;;;;;;;;;;5028867;28;20045;-60
2023/08/15 04:09:06;;;;;;;18.30;11.52;;;;;;;;;;5039838;28;20045;-60
2023/08/15 04:11:32;;;;;;;17.77;11.00;;;;;;;;;;5031941;28;20025;-60
2023/08/15 04:13:58;;;;;;;18.20;11.95;;;;;;;;;;5026383;28;20386;-60
2023/08/15 04:16:25;;;;;;;22.30;11.45;;;;;;;;;;5013487;28;20037;-60
2023/08/15 04:18:51;;;;;;;19.20;11.60;;;;;;;;;;5028941;28;20048;-60
2023/08/15 04:21:20;;;;;;;20.23;11.02;;;;;;;;;;5027870;28;20033;-60
2023/08/15 04:23:46;;;;;;;17.13;10.48;;;;;;;;;;5028491;28;20045;-60
2023/08/15 04:26:13;;;;;;;18.38;11.73;;;;;;;;;;5031102;28;20044;-60
2023/08/15 04:28:39;;;;;;;19.15;11.60;;;;;;;;;;5029047;28;20041;-60
2023/08/15 04:31:05;;;;;;;17.20;11.23;;;;;;;;;;5011740;28;20033;-60
2023/08/15 04:33:32;;;;;;;18.52;10.68;;;;;;;;;;5025513;28;20041;-60
2023/08/15 04:35:58;;;;;;;18.48;11.30;;;;;;;;;;5026964;28;20571;-60
2023/08/15 04:38:25;;;;;;;15.65;11.60;;;;;;;;;;5029149;28;20049;-60
2023/08/15 04:40:52;;;;;;;16.65;11.82;;;;;;;;;;5029323;28;20515;-60
2023/08/15 04:43:18;;;;;;;19.13;11.70;;;;;;;;;;5024365;28;20105;-60
2023/08/15 04:45:45;;;;;;;18.60;11.32;;;;;;;;;;5027899;28;20056;-61
2023/08/15 04:48:12;;;;;;;20.90;11.60;;;;;;;;;;5032769;28;20429;-59
2023/08/15 04:50:39;;;;;;;17.85;11.07;;;;;;;;;;5030651;28;20037;-60
2023/08/15 04:53:06;;;;;;;24.75;11.75;;;;;;;;;;5024890;28;20033;-60
2023/08/15 04:55:33;;;;;;;20.02;12.30;;;;;;;;;;5023070;28;20050;-60
2023/08/15 04:57:59;;;;;;;17.83;12.25;;;;;;;;;;5034480;28;20042;-60
2023/08/15 05:00:25;;;;;;;18.33;11.48;;;;;;;;;;5016781;28;20042;-60
2023/08/15 05:02:51;;;;;;;19.27;11.65;;;;;;;;;;5031742;28;20056;-60
2023/08/15 05:05:17;;;;;;;17.42;12.38;;;;;;;;;;5040547;28;20061;-60
2023/08/15 05:07:44;;;;;;;18.35;11.30;;;;;;;;;;5031041;28;20033;-60
2023/08/15 05:10:10;;;;;;;17.35;11.85;;;;;;;;;;5035350;28;20053;-59
2023/08/15 05:12:39;;;;;;;18.85;12.70;;;;;;;;;;5029397;28;20038;-59
2023/08/15 05:23:17;;;;;;;18.15;12.13;;;;;;;;;;5035605;28;20033;-59
2023/08/15 05:25:43;;;;;;;21.92;13.18;;;;;;;;;;5033833;28;20040;-59
2023/08/15 05:28:11;;;;;;;22.83;13.07;;;;;;;;;;5029467;28;20045;-58
2023/08/15 05:30:38;;;;;;;19.75;13.00;;;;;;;;;;5031986;28;20038;-60
2023/08/15 05:33:04;;;;;;;18.65;12.43;;;;;;;;;;5031442;28;20033;-60
2023/08/15 05:35:30;;;;;;;20.00;13.32;;;;;;;;;;5034594;28;20519;-59
2023/08/15 05:37:56;;;;;;;16.90;12.30;;;;;;;;;;5033089;28;20060;-60
2023/08/15 05:40:25;;;;;;;20.08;13.35;;;;;;;;;;5031724;28;20030;-60
2023/08/15 05:42:51;;;;;;;19.60;12.15;;;;;;;;;;5030688;28;20037;-60
2023/08/15 05:45:17;;;;;;;19.88;13.00;;;;;;;;;;5026553;28;20037;-60
2023/08/15 05:47:44;;;;;;;19.98;12.18;;;;;;;;;;5037835;28;20032;-60
2023/08/15 05:50:10;;;;;;;19.70;12.70;;;;;;;;;;5036614;28;20049;-60
2023/08/15 05:52:36;;;;;;;18.58;12.15;;;;;;;;;;5048178;28;20420;-60
2023/08/15 05:55:02;;;;;;;20.80;13.77;;;;;;;;;;5032875;28;20034;-60
2023/08/15 05:57:28;;;;;;;20.52;13.40;;;;;;;;;;5038651;28;20036;-60
2023/08/15 05:59:54;;;;;;;20.13;12.27;;;;;;;;;;5032383;28;20409;-60
2023/08/15 06:02:20;;;;;;;19.05;13.23;;;;;;;;;;5037842;28;20037;-60
2023/08/15 06:04:46;;;;;;;17.55;12.52;;;;;;;;;;5034364;28;20053;-60
2023/08/15 06:07:13;;;;;;;24.75;13.93;;;;;;;;;;5040530;28;20385;-60
2023/08/15 06:09:39;;;;;;;20.33;13.40;;;;;;;;;;5039948;28;20045;-60
2023/08/15 06:12:05;;;;;;;21.25;13.32;;;;;;;;;;5037250;28;20059;-61
2023/08/15 06:14:33;;;;;;;19.23;12.85;;;;;;;;;;5029691;28;20041;-60
2023/08/15 06:16:59;;;;;;;19.88;13.55;;;;;;;;;;5030374;28;20033;-60
2023/08/15 06:19:26;;;;;;;20.08;13.95;;;;;;;;;;5026156;28;20038;-60
2023/08/15 06:21:52;;;;;;;30.35;17.85;;;;;;;;;;5030258;28;20424;-60
2023/08/15 06:24:18;;;;;;;26.38;16.55;;;;;;;;;;5028250;28;20045;-60
2023/08/15 06:26:44;;;;;;;25.42;17.17;;;;;;;;;;5033743;28;20029;-60
2023/08/15 06:29:10;;;;;;;23.25;15.50;;;;;;;;;;5029946;28;20676;-60
2023/08/15 06:31:36;;;;;;;20.55;13.30;;;;;;;;;;5030461;28;20118;-60
2023/08/15 06:34:02;;;;;;;20.15;12.68;;;;;;;;;;5026349;28;20049;-60
2023/08/15 06:36:29;;;;;;;17.95;12.90;;;;;;;;;;5038276;28;20040;-60
2023/08/15 06:38:55;;;;;;;26.58;13.40;;;;;;;;;;5029768;28;20029;-60
2023/08/15 06:41:21;;;;;;;18.40;13.85;;;;;;;;;;5035033;28;20041;-62
2023/08/15 06:43:49;;;;;;;19.60;13.70;;;;;;;;;;5029451;28;20041;-61
2023/08/15 06:46:15;;;;;;;18.95;12.95;;;;;;;;;;5031038;28;20064;-60
2023/08/15 06:48:41;;;;;;;20.13;12.77;;;;;;;;;;5032469;28;20535;-61
2023/08/15 06:51:07;;;;;;;22.88;13.30;;;;;;;;;;5020583;28;20037;-61
2023/08/15 06:53:33;;;;;;;20.00;12.90;;;;;;;;;;5036663;28;20421;-60
2023/08/15 06:55:59;;;;;;;24.65;13.30;;;;;;;;;;5031777;28;20056;-61
2023/08/15 06:58:26;;;;;;;22.48;13.07;;;;;;;;;;5035711;28;20531;-60
2023/08/15 07:00:52;;;;;;;20.60;13.60;;;;;;;;;;5030758;28;20041;-61
2023/08/15 07:03:18;;;;;;;22.38;13.48;;;;;;;;;;5036667;28;20053;-60
2023/08/15 07:05:45;;;;;;;21.13;12.65;;;;;;;;;;5040170;28;20057;-61
2023/08/15 07:08:13;;;;;;;16.17;12.45;;;;;;;;;;5040747;28;20044;-61
2023/08/15 07:10:39;;;;;;;17.27;12.25;;;;;;;;;;5032599;28;20112;-61
2023/08/15 07:13:06;;;;;;;17.60;13.07;;;;;;;;;;5030335;28;20080;-61
2023/08/15 07:15:32;;;;;;;19.13;13.05;;;;;;;;;;5032471;28;20533;-59
2023/08/15 07:17:59;;;;;;;16.70;12.13;;;;;;;;;;5028082;28;20049;-61
2023/08/15 07:20:25;;;;;;;19.20;12.18;;;;;;;;;;5028598;28;20048;-61
2023/08/15 07:22:53;;;;;;;18.90;12.82;;;;;;;;;;5027274;28;20064;-61
2023/08/15 07:25:19;;;;;;;16.02;11.43;;;;;;;;;;5027698;28;20033;-60
2023/08/15 07:27:45;;;;;;;20.90;12.65;;;;;;;;;;5028858;28;20041;-61
2023/08/15 07:30:12;;;;;;;18.27;12.75;;;;;;;;;;5028695;28;20045;-61
2023/08/15 07:32:38;;;;;;;18.95;12.45;;;;;;;;;;5028079;28;20500;-61
2023/08/15 07:35:05;;;;;;;15.50;11.60;;;;;;;;;;5027206;28;20041;-61
2023/08/15 07:37:32;;;;;;;15.48;11.88;;;;;;;;;;5031285;28;20073;-61
2023/08/15 07:40:05;;;;;;;17.02;12.00;;;;;;;;;;5026661;28;20033;-61
2023/08/15 07:42:32;;;;;;;17.20;11.57;;;;;;;;;;5027450;28;20056;-62
2023/08/15 07:44:58;;;;;;;23.30;12.57;;;;;;;;;;5031014;28;20045;-61
2023/08/15 07:47:25;;;;;;;15.80;11.73;;;;;;;;;;5039679;28;20056;-61
2023/08/15 07:50:13;;;;;;;18.10;12.20;;;;;;;;;;5023683;28;20037;-61
2023/08/15 07:52:39;;;;;;;18.47;11.87;;;;;;;;;;5021614;28;20414;-61
2023/08/15 07:55:07;;;;;;;16.25;11.30;;;;;;;;;;5029461;28;20291;-62
2023/08/15 07:57:33;;;;;;;21.08;12.05;;;;;;;;;;5035359;28;20041;-61
2023/08/15 07:59:59;;;;;;;20.60;11.77;;;;;;;;;;5036352;28;20038;-61
2023/08/15 08:02:25;;;;;;;21.55;11.95;;;;;;;;;;5030479;28;20433;-60
2023/08/15 08:04:51;;;;;;;19.15;12.18;;;;;;;;;;5038635;28;20045;-62
2023/08/15 08:07:17;;;;;;;18.80;11.20;;;;;;;;;;5038568;28;20041;-61
2023/08/15 08:09:43;;;;;;;28.50;11.85;;;;;;;;;;5030806;28;20049;-61
2023/08/15 08:12:10;;;;;;;17.02;9.60;;;;;;;;;;5028775;28;20054;-61
2023/08/15 08:14:36;;;;;;;18.73;9.70;;;;;;;;;;5028023;28;20030;-61
2023/08/15 08:17:02;;;;;;;16.98;9.77;;;;;;;;;;5031881;28;20405;-61
2023/08/15 08:19:28;;;;;;;18.60;9.45;;;;;;;;;;5024489;28;20441;-61
2023/08/15 08:21:54;;;;;;;14.95;10.10;;;;;;;;;;5021384;28;20045;-61
2023/08/15 08:24:20;;;;;;;15.30;9.65;;;;;;;;;;5030853;28;20029;-61
2023/08/15 08:26:46;;;;;;;21.67;9.82;;;;;;;;;;5027890;28;20512;-61
2023/08/15 08:29:12;;;;;;;16.92;9.10;;;;;;;;;;5027439;28;20041;-61
2023/08/15 08:31:39;;;;;;;13.05;8.77;;;;;;;;;;5026277;28;20046;-62
2023/08/15 08:34:13;;;;;;;18.63;9.43;;;;;;;;;;5031411;28;20052;-61
2023/08/15 08:36:43;;;;;;;17.73;9.00;;;;;;;;;;5030606;28;20068;-62
2023/08/15 08:39:11;;;;;;;17.27;9.18;;;;;;;;;;5032197;28;20045;-61
2023/08/15 08:41:38;;;;;;;12.43;9.00;;;;;;;;;;5037812;28;20052;-61
2023/08/15 08:44:04;;;;;;;16.45;8.82;;;;;;;;;;5026353;28;20592;-61
2023/08/15 08:46:31;;;;;;;14.15;8.68;;;;;;;;;;5026911;28;20040;-61
2023/08/15 08:48:58;;;;;;;15.80;8.60;;;;;;;;;;5034895;28;20045;-60
2023/08/15 08:51:25;;;;;;;18.52;9.38;;;;;;;;;;5029823;28;20437;-61
2023/08/15 08:53:52;;;;;;;13.35;8.50;;;;;;;;;;5032875;28;20041;-62
2023/08/15 08:56:22;;;;;;;15.73;8.55;;;;;;;;;;5038898;28;20045;-61
2023/08/15 08:58:50;;;;;;;15.80;7.80;;;;;;;;;;5039252;28;20037;-62
2023/08/15 09:01:17;;;;;;;15.02;8.02;;;;;;;;;;5041080;28;20049;-62
2023/08/15 09:03:44;;;;;;;13.73;7.88;;;;;;;;;;5038561;28;20041;-62
2023/08/15 09:06:11;;;;;;;13.18;7.60;;;;;;;;;;5037254;28;20373;-62
2023/08/15 09:08:37;;;;;;;14.55;7.28;;;;;;;;;;5036339;28;20033;-61
2023/08/15 09:11:03;;;;;;;13.43;6.82;;;;;;;;;;5031113;28;20041;-62
2023/08/15 09:13:29;;;;;;;10.43;6.38;;;;;;;;;;5033043;28;20508;-62
2023/08/15 09:15:59;;;;;;;11.90;6.10;;;;;;;;;;5030140;28;20030;-61
2023/08/15 09:18:26;;;;;;;14.60;5.95;;;;;;;;;;5031907;28;20417;-61
2023/08/15 09:20:53;;;;;;;10.45;6.32;;;;;;;;;;5029179;28;20038;-62
2023/08/15 09:23:19;;;;;;;14.43;5.72;;;;;;;;;;5008550;28;20113;-62
2023/08/15 09:25:47;;;;;;;17.17;6.88;;;;;;;;;;5033732;28;20036;-62
2023/08/15 09:28:15;;;;;;;15.57;5.83;;;;;;;;;;5030298;28;20041;-61
2023/08/15 09:30:50;;;;;;;13.05;6.40;;;;;;;;;;5028981;28;20679;-60
2023/08/15 09:33:16;;;;;;;11.70;5.75;;;;;;;;;;5036355;28;20112;-61
2023/08/15 09:35:45;;;;;;;13.05;6.13;;;;;;;;;;5039136;28;20401;-61
2023/08/15 09:38:11;;;;;;;16.00;6.20;;;;;;;;;;5027282;28;20061;-62
2023/08/15 09:40:37;;;;;;;12.77;5.90;;;;;;;;;;5028323;28;20034;-62
2023/08/15 09:43:04;;;;;;;12.93;5.90;;;;;;;;;;5029423;28;20040;-61
2023/08/15 09:45:30;;;;;;;20.98;6.18;;;;;;;;;;5028285;28;20042;-61
2023/08/15 09:47:57;;;;;;;13.45;6.18;;;;;;;;;;5022496;28;20053;-62
2023/08/15 09:50:23;;;;;;;13.20;5.90;;;;;;;;;;5024476;28;20032;-61
2023/08/15 09:52:50;;;;;;;9.27;5.90;;;;;;;;;;5034366;28;20048;-61
2023/08/15 09:55:16;;;;;;;12.55;5.40;;;;;;;;;;5043011;28;20044;-61
2023/08/15 09:57:44;;;;;;;14.57;5.80;;;;;;;;;;5034633;28;20060;-62
2023/08/15 10:00:12;;;;;;;22.23;5.63;;;;;;;;;;5032639;28;20064;-61
2023/08/15 10:02:47;;;;;;;11.77;5.72;;;;;;;;;;5040378;28;20072;-62
2023/08/15 10:05:18;;;;;;;11.95;5.65;;;;;;;;;;5042145;28;20041;-62
2023/08/15 10:07:45;;;;;;;13.40;5.78;;;;;;;;;;5031851;28;20033;-60
2023/08/15 10:10:13;;;;;;;12.50;5.10;;;;;;;;;;5030117;28;20065;-62
2023/08/15 10:12:41;;;;;;;12.38;5.07;;;;;;;;;;5029783;28;20057;-62
2023/08/15 10:15:08;;;;;;;9.85;4.35;;;;;;;;;;5030366;28;20037;-61
2023/08/15 10:17:35;;;;;;;8.35;4.10;;;;;;;;;;5032408;28;20046;-62
2023/08/15 10:20:05;;;;;;;7.70;3.67;;;;;;;;;;5028871;28;20040;-62
2023/08/15 10:22:34;;;;;;;7.70;3.80;;;;;;;;;;5033619;28;20088;-61
2023/08/15 10:25:22;;;;;;;6.65;3.33;;;;;;;;;;5034914;28;20045;-61
2023/08/15 10:27:52;;;;;;;6.90;3.40;;;;;;;;;;5029324;28;20037;-62
2023/08/15 10:30:30;;;;;;;4.53;3.05;;;;;;;;;;5027103;28;20037;-62
2023/08/15 10:33:01;;;;;;;11.60;3.60;;;;;;;;;;5033576;28;20041;-62
2023/08/15 10:35:31;;;;;;;10.00;4.00;;;;;;;;;;5030911;28;20049;-62
2023/08/15 10:37:57;;;;;;;6.00;3.30;;;;;;;;;;5052632;28;20390;-62
2023/08/15 10:40:36;;;;;;;6.72;3.53;;;;;;;;;;5040653;28;20063;-62
2023/08/15 10:43:05;;;;;;;6.32;3.35;;;;;;;;;;5025097;28;20045;-62
2023/08/15 10:45:44;;;;;;;4.45;3.17;;;;;;;;;;5024588;28;20046;-62
2023/08/15 10:48:11;;;;;;;5.72;3.30;;;;;;;;;;5037330;28;20552;-62
2023/08/15 10:50:44;;;;;;;7.47;3.63;;;;;;;;;;5038252;28;20045;-62
2023/08/15 10:53:10;;;;;;;7.63;3.30;;;;;;;;;;5028702;28;20029;-62
2023/08/15 10:55:38;;;;;;;9.75;3.30;;;;;;;;;;5038403;28;20056;-62
2023/08/15 10:58:10;;;;;;;6.30;3.20;;;;;;;;;;5031393;28;20408;-62
2023/08/15 11:00:37;;;;;;;5.53;3.38;;;;;;;;;;5031608;28;20038;-62
2023/08/15 11:03:04;;;;;;;6.78;3.35;;;;;;;;;;5031047;28;20248;-62
2023/08/15 11:05:30;;;;;;;8.13;3.60;;;;;;;;;;5032246;28;20061;-62
2023/08/15 11:08:14;;;;;;;5.60;3.25;;;;;;;;;;5039922;28;20033;-61
2023/08/15 11:10:48;;;;;;;5.38;3.40;;;;;;;;;;5028642;28;20041;-62
2023/08/15 11:13:17;;;;;;;4.55;3.33;;;;;;;;;;5030444;28;20056;-62
2023/08/15 11:15:45;;;;;;;6.90;3.47;;;;;;;;;;5031243;28;20041;-62
2023/08/15 11:18:20;;;;;;;6.60;3.58;;;;;;;;;;5031850;28;20048;-62
2023/08/15 11:20:46;;;;;;;5.05;3.40;;;;;;;;;;5031536;28;20053;-62
2023/08/15 11:23:12;;;;;;;6.32;3.28;;;;;;;;;;5032708;28;20037;-62
2023/08/15 11:25:40;;;;;;;5.45;3.45;;;;;;;;;;5029170;28;20037;-62
2023/08/15 11:28:06;;;;;;;5.45;3.17;;;;;;;;;;5033831;28;20062;-62
2023/08/15 11:30:33;;;;;;;8.13;3.42;;;;;;;;;;5030972;28;20038;-62
2023/08/15 11:32:59;;;;;;;5.57;3.03;;;;;;;;;;5030536;28;20029;-61
2023/08/15 11:35:25;;;;;;;5.07;3.28;;;;;;;;;;5024864;28;20049;-62
2023/08/15 11:37:52;;;;;;;7.88;3.63;;;;;;;;;;5030945;28;20041;-61
2023/08/15 11:40:18;;;;;;;8.18;3.28;;;;;;;;;;5026037;28;20037;-62
2023/08/15 11:42:44;;;;;;;4.63;2.95;;;;;;;;;;5028366;28;20037;-62
2023/08/15 11:45:18;;;;;;;6.45;3.35;;;;;;;;;;5030680;28;20033;-62
2023/08/15 11:47:55;;;;;;;7.25;2.92;;;;;;;;;;5028834;28;20040;-62
2023/08/15 11:50:22;;;;;;;3.95;3.00;;;;;;;;;;5031180;28;20034;-62
2023/08/15 11:52:49;;;;;;;5.40;2.80;;;;;;;;;;5033092;28;20493;-62
2023/08/15 11:55:15;;;;;;;7.75;2.97;;;;;;;;;;5034775;28;20413;-62
2023/08/15 11:57:41;;;;;;;5.85;2.75;;;;;;;;;;5035238;28;20041;-62
2023/08/15 12:00:08;;;;;;;5.18;3.00;;;;;;;;;;5030522;28;20529;-62
2023/08/15 12:02:34;;;;;;;5.78;2.67;;;;;;;;;;5034643;28;20504;-62
2023/08/15 12:05:12;;;;;;;4.88;2.70;;;;;;;;;;5028873;28;20041;-62
2023/08/15 12:07:39;;;;;;;6.00;2.77;;;;;;;;;;5035073;28;20041;-62
2023/08/15 12:10:10;;;;;;;5.22;2.40;;;;;;;;;;5031758;28;20029;-62
2023/08/15 12:12:44;;;;;;;5.43;2.45;;;;;;;;;;5032876;28;20508;-63
2023/08/15 12:15:13;;;;;;;5.40;2.83;;;;;;;;;;5031969;28;20417;-62
2023/08/15 12:17:39;;;;;;;;;;;;;;;;;;5029836;28;20041;-62
2023/08/15 12:20:11;;;;;;;4.30;2.58;;;;;;;;;;5030364;28;19920;-61
2023/08/15 12:22:41;;;;;;;6.03;2.60;;;;;;;;;;5036303;28;20044;-60
2023/08/15 12:25:08;;;;;;;5.93;3.00;;;;;;;;;;5029755;28;20029;-61
2023/08/15 12:27:35;;;;;;;4.60;2.70;;;;;;;;;;5028811;28;20037;-62
2023/08/15 12:30:03;;;;;;;4.60;2.55;;;;;;;;;;5034193;28;20053;-62
2023/08/15 12:32:29;;;;;;;7.00;2.80;;;;;;;;;;5031419;28;20535;-62
2023/08/15 12:34:55;;;;;;;5.78;2.63;;;;;;;;;;5030571;28;20037;-62
2023/08/15 12:37:22;;;;;;;5.65;2.70;;;;;;;;;;5028554;28;20040;-61
2023/08/15 12:39:48;;;;;;;5.90;2.50;;;;;;;;;;5031470;28;20057;-62
2023/08/15 12:42:15;;;;;;;7.50;2.78;;;;;;;;;;5038594;28;20029;-62
2023/08/15 12:44:42;;;;;;;5.40;2.63;;;;;;;;;;5031392;28;20042;-62
2023/08/15 12:47:11;;;;;;;4.68;2.38;;;;;;;;;;5033592;28;20041;-62
2023/08/15 12:49:38;;;;;;;4.50;2.60;;;;;;;;;;5039745;28;20045;-62
2023/08/15 12:52:06;;;;;;;5.45;2.38;;;;;;;;;;5042110;28;20067;-61
2023/08/15 12:54:33;;;;;;;4.57;2.55;;;;;;;;;;5043162;28;20032;-62
2023/08/15 12:57:05;;;;;;;7.30;2.42;;;;;;;;;;5035431;28;20515;-61
2023/08/15 12:59:31;;;;;;;3.65;2.60;;;;;;;;;;5031985;28;20402;-62
2023/08/15 13:01:57;;;;;;;9.23;2.50;;;;;;;;;;5039306;28;20037;-62
2023/08/15 13:04:23;;;;;;;3.22;2.60;;;;;;;;;;5029545;28;20048;-62
2023/08/15 13:06:49;;;;;;;7.47;2.95;;;;;;;;;;5031116;28;20409;-61
2023/08/15 13:09:16;;;;;;;4.25;2.75;;;;;;;;;;5033913;28;20397;-62
2023/08/15 13:11:43;;;;;;;7.07;2.88;;;;;;;;;;5033354;28;20041;-61
2023/08/15 13:14:09;;;;;;;4.60;2.60;;;;;;;;;;5032852;28;20044;-62
2023/08/15 13:16:35;;;;;;;5.57;2.50;;;;;;;;;;5014266;28;20433;-62
2023/08/15 13:19:02;;;;;;;7.25;2.92;;;;;;;;;;5032365;28;20052;-61
2023/08/15 13:21:28;;;;;;;3.95;3.10;;;;;;;;;;5034026;28;20056;-62
2023/08/15 13:23:55;;;;;;;8.07;3.05;;;;;;;;;;5030618;28;20044;-62
2023/08/15 13:26:21;;;;;;;6.22;2.90;;;;;;;;;;5030059;28;20049;-62
2023/08/15 13:28:48;;;;;;;5.25;2.63;;;;;;;;;;5032320;28;20033;-63
2023/08/15 13:31:15;;;;;;;6.05;2.75;;;;;;;;;;5037532;28;20400;-63
2023/08/15 13:33:42;;;;;;;5.43;2.90;;;;;;;;;;5032447;28;20077;-62
2023/08/15 13:36:09;;;;;;;5.10;3.00;;;;;;;;;;5031185;28;20509;-62
2023/08/15 13:38:36;;;;;;;5.57;2.58;;;;;;;;;;5032446;28;20111;-62
2023/08/15 13:41:05;;;;;;;6.88;2.45;;;;;;;;;;5036376;28;20049;-62
2023/08/15 13:43:35;;;;;;;4.40;2.60;;;;;;;;;;5024219;28;20060;-62
2023/08/15 13:46:05;;;;;;;4.18;2.42;;;;;;;;;;5039017;28;20033;-62
2023/08/15 13:48:33;;;;;;;4.32;2.63;;;;;;;;;;5037552;28;20033;-62
2023/08/15 13:51:01;;;;;;;4.40;2.40;;;;;;;;;;5041019;28;20045;-63
2023/08/15 13:53:28;;;;;;;4.60;2.50;;;;;;;;;;5031653;28;20037;-63
2023/08/15 13:55:55;;;;;;;5.50;2.78;;;;;;;;;;5038649;28;20061;-63
2023/08/15 13:58:23;;;;;;;4.68;2.67;;;;;;;;;;5031922;28;20053;-62
2023/08/15 14:00:49;;;;;;;6.53;2.50;;;;;;;;;;5032081;28;20037;-63
2023/08/15 14:03:15;;;;;;;3.65;2.40;;;;;;;;;;5034239;28;20045;-63
2023/08/15 14:05:41;;;;;;;5.57;2.50;;;;;;;;;;5033011;28;20409;-62
2023/08/15 14:08:07;;;;;;;4.80;2.70;;;;;;;;;;5029610;28;20401;-63
2023/08/15 14:10:34;;;;;;;4.13;2.55;;;;;;;;;;5033960;28;20044;-62
2023/08/15 14:13:00;;;;;;;3.45;2.75;;;;;;;;;;5031495;28;20032;-63
2023/08/15 14:15:26;;;;;;;3.92;2.38;;;;;;;;;;5032735;28;20045;-62
2023/08/15 14:17:52;;;;;;;4.25;2.60;;;;;;;;;;5032454;28;20029;-62
2023/08/15 14:20:19;;;;;;;4.53;2.65;;;;;;;;;;5029350;28;20041;-62
2023/08/15 14:22:45;;;;;;;5.07;2.53;;;;;;;;;;5029724;28;20511;-62
2023/08/15 14:25:12;;;;;;;5.35;2.65;;;;;;;;;;5035464;28;20060;-62
2023/08/15 14:27:38;;;;;;;4.43;2.08;;;;;;;;;;5034867;28;20041;-64
2023/08/15 14:30:05;;;;;;;4.38;2.72;;;;;;;;;;5025624;28;20056;-63
2023/08/15 14:32:31;;;;;;;4.80;2.80;;;;;;;;;;5031271;28;20386;-62
2023/08/15 14:34:57;;;;;;;3.47;2.90;;;;;;;;;;5035216;28;20511;-63
2023/08/15 14:37:23;;;;;;;6.35;2.75;;;;;;;;;;5037058;28;20093;-62